sensor_id;sensor_type;location;lat;lon;timestamp;P1;durP1;ratioP1;P2;durP2;ratioP2
1577;SDS011;57623;53.608;10.004;2023-05-10T00:01:30;5.93;;;4.90;;
1577;SDS011;57623;53.608;10.004;2023-05-10T00:03:59;5.37;;;4.97;;
1577;SDS011;57623;53.608;10.004;2023-05-10T00:06:27;5.40;;;4.60;;
1577;SDS011;57623;53.608;10.004;2023-05-10T00:08:56;4.80;;;4.50;;
1577;SDS011;57623;53.608;10.004;2023-05-10T00:11:23;5.30;;;4.80;;
1577;SDS011;57623;53.608;10.004;2023-05-10T00:13:51;5.07;;;4.63;;
1577;SDS011;57623;53.608;10.004;2023-05-10T00:16:20;5.40;;;4.90;;
1577;SDS011;57623;53.608;10.004;2023-05-10T00:18:48;5.67;;;5.17;;
1577;SDS011;57623;53.608;10.004;2023-05-10T00:21:17;5.20;;;4.80;;
1577;SDS011;57623;53.608;10.004;2023-05-10T00:23:45;5.50;;;5.00;;
1577;SDS011;57623;53.608;10.004;2023-05-10T00:26:13;5.67;;;5.03;;
1577;SDS011;57623;53.608;10.004;2023-05-10T00:28:42;5.87;;;5.47;;
1577;SDS011;57623;53.608;10.004;2023-05-10T00:31:10;5.57;;;5.07;;
1577;SDS011;57623;53.608;10.004;2023-05-10T00:33:38;6.50;;;5.47;;
1577;SDS011;57623;53.608;10.004;2023-05-10T00:36:06;5.70;;;5.20;;
1577;SDS011;57623;53.608;10.004;2023-05-10T00:38:36;5.80;;;5.30;;
1577;SDS011;57623;53.608;10.004;2023-05-10T00:41:04;5.40;;;5.00;;
1577;SDS011;57623;53.608;10.004;2023-05-10T00:43:32;5.30;;;4.80;;
1577;SDS011;57623;53.608;10.004;2023-05-10T00:46:00;8.20;;;5.90;;
1577;SDS011;57623;53.608;10.004;2023-05-10T00:48:28;5.33;;;4.83;;
1577;SDS011;57623;53.608;10.004;2023-05-10T00:50:57;5.70;;;5.20;;
1577;SDS011;57623;53.608;10.004;2023-05-10T00:53:25;5.23;;;4.83;;
1577;SDS011;57623;53.608;10.004;2023-05-10T00:55:55;5.53;;;5.03;;
1577;SDS011;57623;53.608;10.004;2023-05-10T00:58:23;5.63;;;5.23;;
1577;SDS011;57623;53.608;10.004;2023-05-10T01:00:54;5.50;;;5.00;;
1577;SDS011;57623;53.608;10.004;2023-05-10T01:03:23;5.30;;;4.90;;
1577;SDS011;57623;53.608;10.004;2023-05-10T01:05:52;5.60;;;5.20;;
1577;SDS011;57623;53.608;10.004;2023-05-10T01:08:20;5.70;;;5.20;;
1577;SDS011;57623;53.608;10.004;2023-05-10T01:10:48;5.60;;;5.10;;
1577;SDS011;57623;53.608;10.004;2023-05-10T01:13:23;5.50;;;5.00;;
1577;SDS011;57623;53.608;10.004;2023-05-10T01:15:58;5.60;;;5.20;;
1577;SDS011;57623;53.608;10.004;2023-05-10T01:18:28;5.93;;;5.27;;
1577;SDS011;57623;53.608;10.004;2023-05-10T01:21:00;6.33;;;5.73;;
1577;SDS011;57623;53.608;10.004;2023-05-10T01:23:42;6.20;;;5.60;;
1577;SDS011;57623;53.608;10.004;2023-05-10T01:26:34;5.77;;;5.17;;
1577;SDS011;57623;53.608;10.004;2023-05-10T01:29:24;5.93;;;5.40;;
1577;SDS011;57623;53.608;10.004;2023-05-10T01:32:36;5.87;;;5.37;;
1577;SDS011;57623;53.608;10.004;2023-05-10T01:35:13;5.63;;;5.10;;
1577;SDS011;57623;53.608;10.004;2023-05-10T01:37:50;5.57;;;5.17;;
1577;SDS011;57623;53.608;10.004;2023-05-10T01:40:25;5.67;;;5.17;;
1577;SDS011;57623;53.608;10.004;2023-05-10T01:42:59;6.20;;;5.60;;
1577;SDS011;57623;53.608;10.004;2023-05-10T01:45:30;5.90;;;5.40;;
1577;SDS011;57623;53.608;10.004;2023-05-10T01:48:07;6.60;;;5.57;;
1577;SDS011;57623;53.608;10.004;2023-05-10T01:50:38;5.40;;;5.00;;
1577;SDS011;57623;53.608;10.004;2023-05-10T01:53:10;5.83;;;5.43;;
1577;SDS011;57623;53.608;10.004;2023-05-10T01:55:41;6.47;;;5.73;;
1577;SDS011;57623;53.608;10.004;2023-05-10T01:58:13;6.30;;;5.50;;
1577;SDS011;57623;53.608;10.004;2023-05-10T02:00:46;5.63;;;5.10;;
1577;SDS011;57623;53.608;10.004;2023-05-10T02:03:17;7.60;;;4.97;;
1577;SDS011;57623;53.608;10.004;2023-05-10T02:05:49;5.80;;;5.27;;
1577;SDS011;57623;53.608;10.004;2023-05-10T02:08:19;6.50;;;6.00;;
1577;SDS011;57623;53.608;10.004;2023-05-10T02:10:49;6.90;;;6.23;;
1577;SDS011;57623;53.608;10.004;2023-05-10T02:13:19;6.43;;;5.83;;
1577;SDS011;57623;53.608;10.004;2023-05-10T02:15:48;5.60;;;5.10;;
1577;SDS011;57623;53.608;10.004;2023-05-10T02:18:19;5.67;;;5.27;;
1577;SDS011;57623;53.608;10.004;2023-05-10T02:20:49;6.03;;;5.43;;
1577;SDS011;57623;53.608;10.004;2023-05-10T02:23:18;6.20;;;5.70;;
1577;SDS011;57623;53.608;10.004;2023-05-10T02:25:48;6.80;;;5.30;;
1577;SDS011;57623;53.608;10.004;2023-05-10T02:28:18;5.90;;;5.30;;
1577;SDS011;57623;53.608;10.004;2023-05-10T02:30:48;6.00;;;5.47;;
1577;SDS011;57623;53.608;10.004;2023-05-10T02:33:17;7.60;;;5.77;;
1577;SDS011;57623;53.608;10.004;2023-05-10T02:35:48;6.73;;;5.47;;
1577;SDS011;57623;53.608;10.004;2023-05-10T02:38:18;5.70;;;5.30;;
1577;SDS011;57623;53.608;10.004;2023-05-10T02:40:49;5.83;;;5.30;;
1577;SDS011;57623;53.608;10.004;2023-05-10T02:43:18;5.70;;;5.20;;
1577;SDS011;57623;53.608;10.004;2023-05-10T02:45:49;6.00;;;5.50;;
1577;SDS011;57623;53.608;10.004;2023-05-10T02:48:21;5.87;;;5.43;;
1577;SDS011;57623;53.608;10.004;2023-05-10T02:50:50;5.97;;;5.57;;
1577;SDS011;57623;53.608;10.004;2023-05-10T02:53:22;6.47;;;5.97;;
1577;SDS011;57623;53.608;10.004;2023-05-10T02:55:57;5.73;;;5.23;;
1577;SDS011;57623;53.608;10.004;2023-05-10T02:58:28;7.00;;;6.10;;
1577;SDS011;57623;53.608;10.004;2023-05-10T03:00:59;5.33;;;4.93;;
1577;SDS011;57623;53.608;10.004;2023-05-10T03:03:29;7.60;;;5.80;;
1577;SDS011;57623;53.608;10.004;2023-05-10T03:05:57;6.57;;;5.97;;
1577;SDS011;57623;53.608;10.004;2023-05-10T03:08:25;5.70;;;5.20;;
1577;SDS011;57623;53.608;10.004;2023-05-10T03:10:58;5.80;;;5.30;;
1577;SDS011;57623;53.608;10.004;2023-05-10T03:13:39;6.23;;;5.73;;
1577;SDS011;57623;53.608;10.004;2023-05-10T03:16:16;6.23;;;5.73;;
1577;SDS011;57623;53.608;10.004;2023-05-10T03:18:55;6.77;;;6.17;;
1577;SDS011;57623;53.608;10.004;2023-05-10T03:21:29;8.43;;;6.50;;
1577;SDS011;57623;53.608;10.004;2023-05-10T03:23:58;6.30;;;5.80;;
1577;SDS011;57623;53.608;10.004;2023-05-10T03:26:30;6.43;;;5.93;;
1577;SDS011;57623;53.608;10.004;2023-05-10T03:28:59;6.63;;;6.03;;
1577;SDS011;57623;53.608;10.004;2023-05-10T03:31:28;6.03;;;5.43;;
1577;SDS011;57623;53.608;10.004;2023-05-10T03:33:57;6.33;;;5.80;;
1577;SDS011;57623;53.608;10.004;2023-05-10T03:36:26;6.57;;;6.07;;
1577;SDS011;57623;53.608;10.004;2023-05-10T03:38:53;7.43;;;5.90;;
1577;SDS011;57623;53.608;10.004;2023-05-10T03:41:21;6.27;;;5.37;;
1577;SDS011;57623;53.608;10.004;2023-05-10T03:43:49;6.10;;;5.67;;
1577;SDS011;57623;53.608;10.004;2023-05-10T03:46:17;6.10;;;5.60;;
1577;SDS011;57623;53.608;10.004;2023-05-10T03:48:45;5.90;;;5.40;;
1577;SDS011;57623;53.608;10.004;2023-05-10T03:51:15;6.60;;;6.10;;
1577;SDS011;57623;53.608;10.004;2023-05-10T03:53:43;6.47;;;5.97;;
1577;SDS011;57623;53.608;10.004;2023-05-10T03:56:11;6.83;;;5.80;;
1577;SDS011;57623;53.608;10.004;2023-05-10T03:58:39;6.47;;;5.83;;
1577;SDS011;57623;53.608;10.004;2023-05-10T04:01:07;6.23;;;5.73;;
1577;SDS011;57623;53.608;10.004;2023-05-10T04:03:35;6.00;;;5.60;;
1577;SDS011;57623;53.608;10.004;2023-05-10T04:06:04;6.37;;;5.87;;
1577;SDS011;57623;53.608;10.004;2023-05-10T04:08:35;6.47;;;5.93;;
1577;SDS011;57623;53.608;10.004;2023-05-10T04:11:07;6.33;;;5.73;;
1577;SDS011;57623;53.608;10.004;2023-05-10T04:13:35;6.30;;;5.63;;
1577;SDS011;57623;53.608;10.004;2023-05-10T04:16:04;6.10;;;5.60;;
1577;SDS011;57623;53.608;10.004;2023-05-10T04:18:32;7.43;;;5.87;;
1577;SDS011;57623;53.608;10.004;2023-05-10T04:21:00;6.17;;;5.67;;
1577;SDS011;57623;53.608;10.004;2023-05-10T04:23:31;6.30;;;5.90;;
1577;SDS011;57623;53.608;10.004;2023-05-10T04:26:01;6.70;;;6.10;;
1577;SDS011;57623;53.608;10.004;2023-05-10T04:28:29;9.03;;;5.90;;
1577;SDS011;57623;53.608;10.004;2023-05-10T04:31:01;6.23;;;5.80;;
1577;SDS011;57623;53.608;10.004;2023-05-10T04:33:29;6.17;;;5.60;;
1577;SDS011;57623;53.608;10.004;2023-05-10T04:35:57;6.73;;;6.10;;
1577;SDS011;57623;53.608;10.004;2023-05-10T04:38:26;6.83;;;6.00;;
1577;SDS011;57623;53.608;10.004;2023-05-10T04:40:55;7.80;;;6.20;;
1577;SDS011;57623;53.608;10.004;2023-05-10T04:43:33;5.80;;;5.30;;
1577;SDS011;57623;53.608;10.004;2023-05-10T04:46:01;6.03;;;5.60;;
1577;SDS011;57623;53.608;10.004;2023-05-10T04:48:29;7.47;;;6.30;;
1577;SDS011;57623;53.608;10.004;2023-05-10T04:50:58;7.87;;;5.87;;
1577;SDS011;57623;53.608;10.004;2023-05-10T04:53:26;5.87;;;5.37;;
1577;SDS011;57623;53.608;10.004;2023-05-10T04:55:53;6.57;;;5.80;;
1577;SDS011;57623;53.608;10.004;2023-05-10T04:58:23;6.90;;;6.30;;
1577;SDS011;57623;53.608;10.004;2023-05-10T05:00:51;6.33;;;5.73;;
1577;SDS011;57623;53.608;10.004;2023-05-10T05:03:19;6.67;;;6.07;;
1577;SDS011;57623;53.608;10.004;2023-05-10T05:05:48;6.23;;;5.73;;
1577;SDS011;57623;53.608;10.004;2023-05-10T05:08:16;6.10;;;5.60;;
1577;SDS011;57623;53.608;10.004;2023-05-10T05:10:44;6.93;;;6.33;;
1577;SDS011;57623;53.608;10.004;2023-05-10T05:13:13;6.80;;;6.07;;
1577;SDS011;57623;53.608;10.004;2023-05-10T05:15:42;6.20;;;5.70;;
1577;SDS011;57623;53.608;10.004;2023-05-10T05:18:10;6.27;;;5.77;;
1577;SDS011;57623;53.608;10.004;2023-05-10T05:20:38;6.50;;;5.93;;
1577;SDS011;57623;53.608;10.004;2023-05-10T05:23:09;6.27;;;5.77;;
1577;SDS011;57623;53.608;10.004;2023-05-10T05:25:37;6.07;;;5.57;;
1577;SDS011;57623;53.608;10.004;2023-05-10T05:28:07;6.87;;;6.27;;
1577;SDS011;57623;53.608;10.004;2023-05-10T05:30:35;6.97;;;6.37;;
1577;SDS011;57623;53.608;10.004;2023-05-10T05:33:04;6.40;;;5.80;;
1577;SDS011;57623;53.608;10.004;2023-05-10T05:35:33;6.07;;;5.57;;
1577;SDS011;57623;53.608;10.004;2023-05-10T05:38:01;6.40;;;5.80;;
1577;SDS011;57623;53.608;10.004;2023-05-10T05:40:29;6.20;;;5.60;;
1577;SDS011;57623;53.608;10.004;2023-05-10T05:42:57;6.20;;;5.70;;
1577;SDS011;57623;53.608;10.004;2023-05-10T05:45:25;6.63;;;6.00;;
1577;SDS011;57623;53.608;10.004;2023-05-10T05:47:53;6.40;;;5.80;;
1577;SDS011;57623;53.608;10.004;2023-05-10T05:50:22;6.47;;;5.83;;
1577;SDS011;57623;53.608;10.004;2023-05-10T05:52:50;6.63;;;6.03;;
1577;SDS011;57623;53.608;10.004;2023-05-10T05:55:18;6.60;;;6.10;;
1577;SDS011;57623;53.608;10.004;2023-05-10T05:57:46;6.50;;;5.67;;
1577;SDS011;57623;53.608;10.004;2023-05-10T06:00:15;5.50;;;5.10;;
1577;SDS011;57623;53.608;10.004;2023-05-10T06:02:43;7.90;;;6.00;;
1577;SDS011;57623;53.608;10.004;2023-05-10T06:05:11;6.60;;;5.40;;
1577;SDS011;57623;53.608;10.004;2023-05-10T06:07:41;6.17;;;5.63;;
1577;SDS011;57623;53.608;10.004;2023-05-10T06:10:09;7.17;;;5.63;;
1577;SDS011;57623;53.608;10.004;2023-05-10T06:12:37;6.40;;;5.90;;
1577;SDS011;57623;53.608;10.004;2023-05-10T06:15:06;7.03;;;6.40;;
1577;SDS011;57623;53.608;10.004;2023-05-10T06:17:35;6.20;;;5.70;;
1577;SDS011;57623;53.608;10.004;2023-05-10T06:20:03;6.90;;;6.30;;
1577;SDS011;57623;53.608;10.004;2023-05-10T06:22:32;6.30;;;5.80;;
1577;SDS011;57623;53.608;10.004;2023-05-10T06:25:01;6.70;;;6.00;;
1577;SDS011;57623;53.608;10.004;2023-05-10T06:27:29;6.23;;;5.73;;
1577;SDS011;57623;53.608;10.004;2023-05-10T06:29:57;7.27;;;6.30;;
1577;SDS011;57623;53.608;10.004;2023-05-10T06:32:38;5.57;;;5.07;;
1577;SDS011;57623;53.608;10.004;2023-05-10T06:35:06;6.00;;;5.43;;
1577;SDS011;57623;53.608;10.004;2023-05-10T06:37:35;6.03;;;5.53;;
1577;SDS011;57623;53.608;10.004;2023-05-10T06:40:05;6.53;;;5.93;;
1577;SDS011;57623;53.608;10.004;2023-05-10T06:42:34;7.40;;;5.73;;
1577;SDS011;57623;53.608;10.004;2023-05-10T06:45:02;6.20;;;5.70;;
1577;SDS011;57623;53.608;10.004;2023-05-10T06:47:30;5.67;;;5.13;;
1577;SDS011;57623;53.608;10.004;2023-05-10T06:49:58;6.27;;;5.83;;
1577;SDS011;57623;53.608;10.004;2023-05-10T06:52:26;6.40;;;5.80;;
1577;SDS011;57623;53.608;10.004;2023-05-10T06:54:54;6.37;;;5.77;;
1577;SDS011;57623;53.608;10.004;2023-05-10T06:57:23;6.60;;;6.00;;
1577;SDS011;57623;53.608;10.004;2023-05-10T06:59:57;6.80;;;5.80;;
1577;SDS011;57623;53.608;10.004;2023-05-10T07:02:25;7.03;;;6.20;;
1577;SDS011;57623;53.608;10.004;2023-05-10T07:04:55;7.17;;;6.60;;
1577;SDS011;57623;53.608;10.004;2023-05-10T07:07:40;6.03;;;5.53;;
1577;SDS011;57623;53.608;10.004;2023-05-10T07:10:09;6.70;;;6.20;;
1577;SDS011;57623;53.608;10.004;2023-05-10T07:12:39;6.33;;;5.77;;
1577;SDS011;57623;53.608;10.004;2023-05-10T07:15:07;7.13;;;6.50;;
1577;SDS011;57623;53.608;10.004;2023-05-10T07:17:36;6.10;;;5.50;;
1577;SDS011;57623;53.608;10.004;2023-05-10T07:20:05;7.50;;;6.70;;
1577;SDS011;57623;53.608;10.004;2023-05-10T07:22:34;6.50;;;5.83;;
1577;SDS011;57623;53.608;10.004;2023-05-10T07:25:02;6.90;;;6.30;;
1577;SDS011;57623;53.608;10.004;2023-05-10T07:27:30;7.07;;;6.37;;
1577;SDS011;57623;53.608;10.004;2023-05-10T07:30:00;7.40;;;5.67;;
1577;SDS011;57623;53.608;10.004;2023-05-10T07:32:28;6.37;;;5.83;;
1577;SDS011;57623;53.608;10.004;2023-05-10T07:34:56;6.50;;;6.00;;
1577;SDS011;57623;53.608;10.004;2023-05-10T07:37:24;6.87;;;6.30;;
1577;SDS011;57623;53.608;10.004;2023-05-10T07:39:52;6.77;;;6.17;;
1577;SDS011;57623;53.608;10.004;2023-05-10T07:42:20;7.83;;;7.00;;
1577;SDS011;57623;53.608;10.004;2023-05-10T07:44:48;6.67;;;6.00;;
1577;SDS011;57623;53.608;10.004;2023-05-10T07:47:18;6.30;;;5.80;;
1577;SDS011;57623;53.608;10.004;2023-05-10T07:49:46;7.10;;;6.40;;
1577;SDS011;57623;53.608;10.004;2023-05-10T07:52:14;6.90;;;6.30;;
1577;SDS011;57623;53.608;10.004;2023-05-10T07:54:42;6.53;;;5.87;;
1577;SDS011;57623;53.608;10.004;2023-05-10T07:57:10;6.80;;;6.17;;
1577;SDS011;57623;53.608;10.004;2023-05-10T07:59:40;5.80;;;5.40;;
1577;SDS011;57623;53.608;10.004;2023-05-10T08:02:09;6.23;;;5.77;;
1577;SDS011;57623;53.608;10.004;2023-05-10T08:04:38;6.10;;;5.60;;
1577;SDS011;57623;53.608;10.004;2023-05-10T08:07:06;6.27;;;5.67;;
1577;SDS011;57623;53.608;10.004;2023-05-10T08:09:34;6.63;;;6.13;;
1577;SDS011;57623;53.608;10.004;2023-05-10T08:12:03;6.50;;;6.00;;
1577;SDS011;57623;53.608;10.004;2023-05-10T08:14:32;6.20;;;5.57;;
1577;SDS011;57623;53.608;10.004;2023-05-10T08:17:00;6.50;;;5.80;;
1577;SDS011;57623;53.608;10.004;2023-05-10T08:19:28;8.83;;;5.80;;
1577;SDS011;57623;53.608;10.004;2023-05-10T08:21:57;6.70;;;6.10;;
1577;SDS011;57623;53.608;10.004;2023-05-10T08:24:25;6.63;;;6.13;;
1577;SDS011;57623;53.608;10.004;2023-05-10T08:26:54;7.10;;;6.40;;
1577;SDS011;57623;53.608;10.004;2023-05-10T08:29:21;6.73;;;6.13;;
1577;SDS011;57623;53.608;10.004;2023-05-10T08:31:51;7.70;;;6.90;;
1577;SDS011;57623;53.608;10.004;2023-05-10T08:34:19;7.27;;;6.50;;
1577;SDS011;57623;53.608;10.004;2023-05-10T08:36:48;9.47;;;6.30;;
1577;SDS011;57623;53.608;10.004;2023-05-10T08:39:17;7.03;;;6.43;;
1577;SDS011;57623;53.608;10.004;2023-05-10T08:41:55;7.73;;;7.00;;
1577;SDS011;57623;53.608;10.004;2023-05-10T08:44:28;6.50;;;6.00;;
1577;SDS011;57623;53.608;10.004;2023-05-10T08:46:57;7.60;;;6.30;;
1577;SDS011;57623;53.608;10.004;2023-05-10T08:49:29;8.40;;;6.70;;
1577;SDS011;57623;53.608;10.004;2023-05-10T08:51:59;6.77;;;6.27;;
1577;SDS011;57623;53.608;10.004;2023-05-10T08:54:32;7.10;;;6.47;;
1577;SDS011;57623;53.608;10.004;2023-05-10T08:57:00;7.30;;;6.60;;
1577;SDS011;57623;53.608;10.004;2023-05-10T08:59:28;6.83;;;6.23;;
1577;SDS011;57623;53.608;10.004;2023-05-10T09:01:57;7.77;;;7.07;;
1577;SDS011;57623;53.608;10.004;2023-05-10T09:04:26;7.70;;;6.50;;
1577;SDS011;57623;53.608;10.004;2023-05-10T09:06:54;8.00;;;6.80;;
1577;SDS011;57623;53.608;10.004;2023-05-10T09:09:22;7.17;;;6.47;;
1577;SDS011;57623;53.608;10.004;2023-05-10T09:11:54;7.30;;;6.60;;
1577;SDS011;57623;53.608;10.004;2023-05-10T09:14:22;9.40;;;6.83;;
1577;SDS011;57623;53.608;10.004;2023-05-10T09:16:51;6.70;;;6.20;;
1577;SDS011;57623;53.608;10.004;2023-05-10T09:19:21;7.10;;;6.40;;
1577;SDS011;57623;53.608;10.004;2023-05-10T09:21:49;7.80;;;6.83;;
1577;SDS011;57623;53.608;10.004;2023-05-10T09:24:17;6.87;;;6.23;;
1577;SDS011;57623;53.608;10.004;2023-05-10T09:26:45;7.67;;;6.20;;
1577;SDS011;57623;53.608;10.004;2023-05-10T09:29:16;7.70;;;7.00;;
1577;SDS011;57623;53.608;10.004;2023-05-10T09:31:44;9.03;;;7.07;;
1577;SDS011;57623;53.608;10.004;2023-05-10T09:34:17;7.30;;;6.70;;
1577;SDS011;57623;53.608;10.004;2023-05-10T09:36:54;7.70;;;7.00;;
1577;SDS011;57623;53.608;10.004;2023-05-10T09:39:30;7.07;;;6.37;;
1577;SDS011;57623;53.608;10.004;2023-05-10T09:41:59;7.27;;;6.50;;
1577;SDS011;57623;53.608;10.004;2023-05-10T09:44:31;7.03;;;6.33;;
1577;SDS011;57623;53.608;10.004;2023-05-10T09:47:00;8.00;;;7.40;;
1577;SDS011;57623;53.608;10.004;2023-05-10T09:49:28;7.70;;;7.00;;
1577;SDS011;57623;53.608;10.004;2023-05-10T09:52:00;8.30;;;7.50;;
1577;SDS011;57623;53.608;10.004;2023-05-10T09:54:29;9.17;;;7.50;;
1577;SDS011;57623;53.608;10.004;2023-05-10T09:56:58;8.20;;;7.60;;
1577;SDS011;57623;53.608;10.004;2023-05-10T09:59:26;10.07;;;7.40;;
1577;SDS011;57623;53.608;10.004;2023-05-10T10:01:57;9.00;;;8.20;;
1577;SDS011;57623;53.608;10.004;2023-05-10T10:04:27;9.00;;;8.10;;
1577;SDS011;57623;53.608;10.004;2023-05-10T10:06:59;8.73;;;7.93;;
1577;SDS011;57623;53.608;10.004;2023-05-10T10:09:29;9.50;;;8.70;;
1577;SDS011;57623;53.608;10.004;2023-05-10T10:11:57;9.50;;;8.60;;
1577;SDS011;57623;53.608;10.004;2023-05-10T10:14:26;8.73;;;8.03;;
1577;SDS011;57623;53.608;10.004;2023-05-10T10:16:54;9.17;;;8.30;;
1577;SDS011;57623;53.608;10.004;2023-05-10T10:19:33;9.93;;;8.40;;
1577;SDS011;57623;53.608;10.004;2023-05-10T10:22:03;10.40;;;9.23;;
1577;SDS011;57623;53.608;10.004;2023-05-10T10:24:31;10.17;;;9.13;;
1577;SDS011;57623;53.608;10.004;2023-05-10T10:27:00;10.60;;;9.57;;
1577;SDS011;57623;53.608;10.004;2023-05-10T10:29:36;10.40;;;9.60;;
1577;SDS011;57623;53.608;10.004;2023-05-10T10:32:18;11.63;;;10.57;;
1577;SDS011;57623;53.608;10.004;2023-05-10T10:34:50;11.63;;;10.53;;
1577;SDS011;57623;53.608;10.004;2023-05-10T10:37:18;10.83;;;9.83;;
1577;SDS011;57623;53.608;10.004;2023-05-10T10:39:47;11.30;;;10.20;;
1577;SDS011;57623;53.608;10.004;2023-05-10T10:42:26;11.20;;;10.20;;
1577;SDS011;57623;53.608;10.004;2023-05-10T10:45:12;11.23;;;10.23;;
1577;SDS011;57623;53.608;10.004;2023-05-10T10:47:42;11.97;;;10.80;;
1577;SDS011;57623;53.608;10.004;2023-05-10T10:50:10;11.00;;;10.00;;
1577;SDS011;57623;53.608;10.004;2023-05-10T10:52:39;10.80;;;9.80;;
1577;SDS011;57623;53.608;10.004;2023-05-10T10:55:08;12.40;;;11.20;;
1577;SDS011;57623;53.608;10.004;2023-05-10T10:57:44;12.07;;;10.97;;
1577;SDS011;57623;53.608;10.004;2023-05-10T11:00:26;11.83;;;10.63;;
1577;SDS011;57623;53.608;10.004;2023-05-10T11:02:59;11.10;;;10.10;;
1577;SDS011;57623;53.608;10.004;2023-05-10T11:05:34;10.90;;;10.00;;
1577;SDS011;57623;53.608;10.004;2023-05-10T11:08:06;11.40;;;10.17;;
1577;SDS011;57623;53.608;10.004;2023-05-10T11:10:40;11.23;;;10.33;;
1577;SDS011;57623;53.608;10.004;2023-05-10T11:13:16;11.63;;;10.27;;
1577;SDS011;57623;53.608;10.004;2023-05-10T11:15:53;12.80;;;11.60;;
1577;SDS011;57623;53.608;10.004;2023-05-10T11:18:25;11.03;;;10.13;;
1577;SDS011;57623;53.608;10.004;2023-05-10T11:20:56;10.93;;;10.03;;
1577;SDS011;57623;53.608;10.004;2023-05-10T11:23:29;11.20;;;10.20;;
1577;SDS011;57623;53.608;10.004;2023-05-10T11:25:58;12.07;;;10.90;;
1577;SDS011;57623;53.608;10.004;2023-05-10T11:28:27;11.60;;;10.37;;
1577;SDS011;57623;53.608;10.004;2023-05-10T11:30:55;11.30;;;10.20;;
1577;SDS011;57623;53.608;10.004;2023-05-10T11:33:25;11.20;;;10.23;;
1577;SDS011;57623;53.608;10.004;2023-05-10T11:35:53;12.17;;;10.97;;
1577;SDS011;57623;53.608;10.004;2023-05-10T11:38:21;11.83;;;10.87;;
1577;SDS011;57623;53.608;10.004;2023-05-10T11:40:50;11.63;;;10.63;;
1577;SDS011;57623;53.608;10.004;2023-05-10T11:43:20;12.57;;;11.57;;
1577;SDS011;57623;53.608;10.004;2023-05-10T11:45:54;11.80;;;10.90;;
1577;SDS011;57623;53.608;10.004;2023-05-10T11:48:22;13.47;;;12.17;;
1577;SDS011;57623;53.608;10.004;2023-05-10T11:50:51;14.57;;;13.17;;
1577;SDS011;57623;53.608;10.004;2023-05-10T11:53:23;12.97;;;11.80;;
1577;SDS011;57623;53.608;10.004;2023-05-10T11:55:53;13.43;;;12.13;;
1577;SDS011;57623;53.608;10.004;2023-05-10T11:58:21;13.80;;;12.50;;
1577;SDS011;57623;53.608;10.004;2023-05-10T12:00:49;13.97;;;12.77;;
1577;SDS011;57623;53.608;10.004;2023-05-10T12:03:17;13.67;;;12.47;;
1577;SDS011;57623;53.608;10.004;2023-05-10T12:05:46;13.93;;;12.60;;
1577;SDS011;57623;53.608;10.004;2023-05-10T12:08:15;14.10;;;12.80;;
1577;SDS011;57623;53.608;10.004;2023-05-10T12:10:48;13.37;;;12.20;;
1577;SDS011;57623;53.608;10.004;2023-05-10T12:13:16;14.40;;;13.00;;
1577;SDS011;57623;53.608;10.004;2023-05-10T12:15:46;13.60;;;12.50;;
1577;SDS011;57623;53.608;10.004;2023-05-10T12:18:14;13.50;;;12.40;;
1577;SDS011;57623;53.608;10.004;2023-05-10T12:20:50;13.00;;;12.00;;
1577;SDS011;57623;53.608;10.004;2023-05-10T12:23:21;13.50;;;12.40;;
1577;SDS011;57623;53.608;10.004;2023-05-10T12:25:48;13.60;;;12.27;;
1577;SDS011;57623;53.608;10.004;2023-05-10T12:28:18;13.40;;;12.20;;
1577;SDS011;57623;53.608;10.004;2023-05-10T12:30:47;14.20;;;12.97;;
1577;SDS011;57623;53.608;10.004;2023-05-10T12:33:15;13.60;;;12.50;;
1577;SDS011;57623;53.608;10.004;2023-05-10T12:35:45;12.40;;;11.40;;
1577;SDS011;57623;53.608;10.004;2023-05-10T12:38:29;13.00;;;11.80;;
1577;SDS011;57623;53.608;10.004;2023-05-10T12:40:59;12.23;;;11.23;;
1577;SDS011;57623;53.608;10.004;2023-05-10T12:43:28;11.90;;;10.90;;
1577;SDS011;57623;53.608;10.004;2023-05-10T12:45:57;12.07;;;11.00;;
1577;SDS011;57623;53.608;10.004;2023-05-10T12:48:25;13.33;;;12.13;;
1577;SDS011;57623;53.608;10.004;2023-05-10T12:50:54;11.60;;;10.60;;
1577;SDS011;57623;53.608;10.004;2023-05-10T12:53:22;11.60;;;10.70;;
1577;SDS011;57623;53.608;10.004;2023-05-10T12:55:52;11.77;;;10.70;;
1577;SDS011;57623;53.608;10.004;2023-05-10T12:58:20;11.23;;;10.23;;
1577;SDS011;57623;53.608;10.004;2023-05-10T13:01:01;11.40;;;10.50;;
1577;SDS011;57623;53.608;10.004;2023-05-10T13:03:31;11.47;;;10.43;;
1577;SDS011;57623;53.608;10.004;2023-05-10T13:05:59;11.10;;;10.03;;
1577;SDS011;57623;53.608;10.004;2023-05-10T13:08:27;11.30;;;10.20;;
1577;SDS011;57623;53.608;10.004;2023-05-10T13:11:00;10.60;;;9.70;;
1577;SDS011;57623;53.608;10.004;2023-05-10T13:13:29;9.57;;;8.77;;
1577;SDS011;57623;53.608;10.004;2023-05-10T13:15:57;10.00;;;9.20;;
1577;SDS011;57623;53.608;10.004;2023-05-10T13:18:25;9.93;;;9.03;;
1577;SDS011;57623;53.608;10.004;2023-05-10T13:20:53;9.77;;;8.97;;
1577;SDS011;57623;53.608;10.004;2023-05-10T13:23:21;9.80;;;8.87;;
1577;SDS011;57623;53.608;10.004;2023-05-10T13:25:49;8.47;;;7.87;;
1577;SDS011;57623;53.608;10.004;2023-05-10T13:28:19;10.03;;;9.20;;
1577;SDS011;57623;53.608;10.004;2023-05-10T13:30:47;11.00;;;10.17;;
1577;SDS011;57623;53.608;10.004;2023-05-10T13:33:15;9.20;;;8.50;;
1577;SDS011;57623;53.608;10.004;2023-05-10T13:35:43;10.70;;;9.70;;
1577;SDS011;57623;53.608;10.004;2023-05-10T13:38:12;10.20;;;9.37;;
1577;SDS011;57623;53.608;10.004;2023-05-10T13:40:40;9.00;;;8.30;;
1577;SDS011;57623;53.608;10.004;2023-05-10T13:43:08;9.50;;;8.60;;
1577;SDS011;57623;53.608;10.004;2023-05-10T13:45:37;9.60;;;8.80;;
1577;SDS011;57623;53.608;10.004;2023-05-10T13:48:06;9.57;;;8.83;;
1577;SDS011;57623;53.608;10.004;2023-05-10T13:50:33;10.10;;;9.20;;
1577;SDS011;57623;53.608;10.004;2023-05-10T13:53:01;10.00;;;9.20;;
1577;SDS011;57623;53.608;10.004;2023-05-10T13:55:29;10.70;;;9.90;;
1577;SDS011;57623;53.608;10.004;2023-05-10T13:57:57;11.20;;;10.30;;
1577;SDS011;57623;53.608;10.004;2023-05-10T14:00:25;10.27;;;9.37;;
1577;SDS011;57623;53.608;10.004;2023-05-10T14:02:55;10.83;;;9.83;;
1577;SDS011;57623;53.608;10.004;2023-05-10T14:05:23;10.40;;;9.50;;
1577;SDS011;57623;53.608;10.004;2023-05-10T14:07:52;11.60;;;10.70;;
1577;SDS011;57623;53.608;10.004;2023-05-10T14:10:20;10.47;;;9.67;;
1577;SDS011;57623;53.608;10.004;2023-05-10T14:12:48;11.10;;;10.30;;
1577;SDS011;57623;53.608;10.004;2023-05-10T14:15:16;11.83;;;10.93;;
1577;SDS011;57623;53.608;10.004;2023-05-10T14:17:44;12.10;;;11.10;;
1577;SDS011;57623;53.608;10.004;2023-05-10T14:20:14;11.47;;;10.67;;
1577;SDS011;57623;53.608;10.004;2023-05-10T14:22:42;12.30;;;11.20;;
1577;SDS011;57623;53.608;10.004;2023-05-10T14:25:10;11.80;;;10.90;;
1577;SDS011;57623;53.608;10.004;2023-05-10T14:27:38;12.33;;;11.33;;
1577;SDS011;57623;53.608;10.004;2023-05-10T14:30:07;11.80;;;11.00;;
1577;SDS011;57623;53.608;10.004;2023-05-10T14:32:35;11.90;;;10.83;;
1577;SDS011;57623;53.608;10.004;2023-05-10T14:35:04;11.57;;;10.60;;
1577;SDS011;57623;53.608;10.004;2023-05-10T14:37:37;11.17;;;10.07;;
1577;SDS011;57623;53.608;10.004;2023-05-10T14:40:06;10.40;;;9.40;;
1577;SDS011;57623;53.608;10.004;2023-05-10T14:42:35;10.80;;;9.90;;
1577;SDS011;57623;53.608;10.004;2023-05-10T14:45:03;10.47;;;9.77;;
1577;SDS011;57623;53.608;10.004;2023-05-10T14:47:32;9.60;;;8.80;;
1577;SDS011;57623;53.608;10.004;2023-05-10T14:50:00;9.67;;;8.87;;
1577;SDS011;57623;53.608;10.004;2023-05-10T14:52:28;9.40;;;8.77;;
1577;SDS011;57623;53.608;10.004;2023-05-10T14:55:00;9.53;;;8.70;;
1577;SDS011;57623;53.608;10.004;2023-05-10T14:57:28;9.10;;;8.40;;